Terminal Aerodrome Forecast
Issued by NWS

Home | Current Version | Previous Version | Text Only | Print | Product List | Glossary On
Versions: 1 2 3 4 5 6 7 8 9 10 11 12 13 14 15 16 17 18
000
FTUS43 KILX 261100
TAFCMI
TAF
KCMI 261137Z 2612/2712 20010KT P6SM SCT080
     FM270000 VRB06KT P6SM VCTS SCT040CB BKN080
      TEMPO 2701/2703 VRB25G40KT 3SM TSRA BR BKN025CB OVC040=

USA.gov is the U.S. government's official web portal to all federal, state and local government web resources and services.